sensor_id;sensor_type;location;lat;lon;timestamp;P1;durP1;ratioP1;P2;durP2;ratioP2
25045;SDS011;13044;49.304;12.840;2022-08-01T00:00:13;5.80;;;3.55;;
25045;SDS011;13044;49.304;12.840;2022-08-01T00:02:40;6.45;;;3.65;;
25045;SDS011;13044;49.304;12.840;2022-08-01T00:05:08;4.70;;;3.50;;
25045;SDS011;13044;49.304;12.840;2022-08-01T00:07:36;5.57;;;3.58;;
25045;SDS011;13044;49.304;12.840;2022-08-01T00:10:05;6.30;;;3.90;;
25045;SDS011;13044;49.304;12.840;2022-08-01T00:12:34;3.55;;;3.25;;
25045;SDS011;13044;49.304;12.840;2022-08-01T00:15:02;5.65;;;3.90;;
25045;SDS011;13044;49.304;12.840;2022-08-01T00:17:31;8.48;;;3.63;;
25045;SDS011;13044;49.304;12.840;2022-08-01T00:19:59;4.90;;;3.90;;
25045;SDS011;13044;49.304;12.840;2022-08-01T00:22:26;4.20;;;3.80;;
25045;SDS011;13044;49.304;12.840;2022-08-01T00:24:53;8.50;;;4.25;;
25045;SDS011;13044;49.304;12.840;2022-08-01T00:27:20;6.00;;;3.80;;
25045;SDS011;13044;49.304;12.840;2022-08-01T00:29:46;4.80;;;3.80;;
25045;SDS011;13044;49.304;12.840;2022-08-01T00:32:33;5.78;;;3.83;;
25045;SDS011;13044;49.304;12.840;2022-08-01T00:35:00;6.53;;;3.50;;
25045;SDS011;13044;49.304;12.840;2022-08-01T00:37:27;5.63;;;4.10;;
25045;SDS011;13044;49.304;12.840;2022-08-01T00:39:54;6.35;;;3.60;;
25045;SDS011;13044;49.304;12.840;2022-08-01T00:42:21;6.70;;;3.60;;
25045;SDS011;13044;49.304;12.840;2022-08-01T00:44:48;6.47;;;3.58;;
25045;SDS011;13044;49.304;12.840;2022-08-01T00:47:15;5.03;;;3.95;;
25045;SDS011;13044;49.304;12.840;2022-08-01T00:49:42;5.38;;;4.25;;
25045;SDS011;13044;49.304;12.840;2022-08-01T00:52:09;4.95;;;4.25;;
25045;SDS011;13044;49.304;12.840;2022-08-01T00:54:36;7.65;;;4.30;;
25045;SDS011;13044;49.304;12.840;2022-08-01T00:57:03;6.72;;;4.25;;
25045;SDS011;13044;49.304;12.840;2022-08-01T00:59:35;5.38;;;3.58;;
25045;SDS011;13044;49.304;12.840;2022-08-01T01:02:06;5.50;;;4.30;;
25045;SDS011;13044;49.304;12.840;2022-08-01T01:04:40;6.28;;;3.97;;
25045;SDS011;13044;49.304;12.840;2022-08-01T01:07:14;4.47;;;4.05;;
25045;SDS011;13044;49.304;12.840;2022-08-01T01:09:58;7.88;;;3.63;;
25045;SDS011;13044;49.304;12.840;2022-08-01T01:12:35;8.48;;;4.03;;
25045;SDS011;13044;49.304;12.840;2022-08-01T01:15:46;6.45;;;3.72;;
25045;SDS011;13044;49.304;12.840;2022-08-01T01:24:00;5.07;;;4.30;;
25045;SDS011;13044;49.304;12.840;2022-08-01T01:26:52;8.18;;;4.00;;
25045;SDS011;13044;49.304;12.840;2022-08-01T01:29:30;7.30;;;3.47;;
25045;SDS011;13044;49.304;12.840;2022-08-01T01:32:30;4.65;;;4.20;;
25045;SDS011;13044;49.304;12.840;2022-08-01T01:35:45;4.28;;;3.83;;
25045;SDS011;13044;49.304;12.840;2022-08-01T01:38:15;4.10;;;3.70;;
25045;SDS011;13044;49.304;12.840;2022-08-01T01:40:46;4.50;;;4.10;;
25045;SDS011;13044;49.304;12.840;2022-08-01T01:43:15;4.32;;;3.92;;
25045;SDS011;13044;49.304;12.840;2022-08-01T01:45:44;9.90;;;4.03;;
25045;SDS011;13044;49.304;12.840;2022-08-01T01:48:14;5.40;;;3.70;;
25045;SDS011;13044;49.304;12.840;2022-08-01T01:50:46;6.75;;;3.53;;
25045;SDS011;13044;49.304;12.840;2022-08-01T01:53:15;4.65;;;3.60;;
25045;SDS011;13044;49.304;12.840;2022-08-01T01:55:46;6.80;;;4.00;;
25045;SDS011;13044;49.304;12.840;2022-08-01T01:58:16;5.95;;;3.70;;
25045;SDS011;13044;49.304;12.840;2022-08-01T02:00:46;3.90;;;3.50;;
25045;SDS011;13044;49.304;12.840;2022-08-01T02:03:16;4.85;;;3.63;;
25045;SDS011;13044;49.304;12.840;2022-08-01T02:05:45;4.63;;;3.45;;
25045;SDS011;13044;49.304;12.840;2022-08-01T02:08:16;3.80;;;3.40;;
25045;SDS011;13044;49.304;12.840;2022-08-01T02:10:45;5.93;;;3.45;;
25045;SDS011;13044;49.304;12.840;2022-08-01T02:13:33;8.27;;;3.95;;
25045;SDS011;13044;49.304;12.840;2022-08-01T02:16:03;6.35;;;3.67;;
25045;SDS011;13044;49.304;12.840;2022-08-01T02:18:32;7.95;;;3.10;;
25045;SDS011;13044;49.304;12.840;2022-08-01T02:20:59;3.47;;;3.17;;
25045;SDS011;13044;49.304;12.840;2022-08-01T02:23:34;4.78;;;3.22;;
25045;SDS011;13044;49.304;12.840;2022-08-01T02:26:04;4.15;;;3.17;;
25045;SDS011;13044;49.304;12.840;2022-08-01T02:28:45;6.38;;;3.63;;
25045;SDS011;13044;49.304;12.840;2022-08-01T02:31:20;5.07;;;3.28;;
25045;SDS011;13044;49.304;12.840;2022-08-01T02:33:52;4.20;;;3.50;;
25045;SDS011;13044;49.304;12.840;2022-08-01T02:36:26;5.43;;;3.80;;
25045;SDS011;13044;49.304;12.840;2022-08-01T02:38:59;4.97;;;3.50;;
25045;SDS011;13044;49.304;12.840;2022-08-01T02:41:30;4.88;;;3.80;;
25045;SDS011;13044;49.304;12.840;2022-08-01T02:44:02;5.15;;;2.97;;
25045;SDS011;13044;49.304;12.840;2022-08-01T02:46:35;4.50;;;3.42;;
25045;SDS011;13044;49.304;12.840;2022-08-01T02:49:06;5.40;;;3.58;;
25045;SDS011;13044;49.304;12.840;2022-08-01T02:51:35;5.22;;;3.88;;
25045;SDS011;13044;49.304;12.840;2022-08-01T02:54:05;4.40;;;3.60;;
25045;SDS011;13044;49.304;12.840;2022-08-01T02:56:35;6.03;;;3.50;;
25045;SDS011;13044;49.304;12.840;2022-08-01T02:59:04;5.10;;;3.47;;
25045;SDS011;13044;49.304;12.840;2022-08-01T03:01:34;4.72;;;3.65;;
25045;SDS011;13044;49.304;12.840;2022-08-01T03:04:06;6.13;;;3.35;;
25045;SDS011;13044;49.304;12.840;2022-08-01T03:06:34;3.50;;;3.20;;
25045;SDS011;13044;49.304;12.840;2022-08-01T03:09:04;7.53;;;4.03;;
25045;SDS011;13044;49.304;12.840;2022-08-01T03:11:32;3.78;;;3.47;;
25045;SDS011;13044;49.304;12.840;2022-08-01T03:14:01;5.60;;;3.83;;
25045;SDS011;13044;49.304;12.840;2022-08-01T03:16:31;4.68;;;4.10;;
25045;SDS011;13044;49.304;12.840;2022-08-01T03:19:02;5.15;;;3.38;;
25045;SDS011;13044;49.304;12.840;2022-08-01T03:21:31;5.43;;;3.47;;
25045;SDS011;13044;49.304;12.840;2022-08-01T03:23:59;4.78;;;3.45;;
25045;SDS011;13044;49.304;12.840;2022-08-01T03:26:30;5.18;;;4.00;;
25045;SDS011;13044;49.304;12.840;2022-08-01T03:29:05;4.30;;;3.75;;
25045;SDS011;13044;49.304;12.840;2022-08-01T03:31:47;4.20;;;3.80;;
25045;SDS011;13044;49.304;12.840;2022-08-01T03:34:15;6.75;;;3.97;;
25045;SDS011;13044;49.304;12.840;2022-08-01T03:36:55;4.07;;;3.67;;
25045;SDS011;13044;49.304;12.840;2022-08-01T03:39:30;6.40;;;4.00;;
25045;SDS011;13044;49.304;12.840;2022-08-01T03:42:05;5.68;;;3.92;;
25045;SDS011;13044;49.304;12.840;2022-08-01T03:44:39;4.72;;;3.60;;
25045;SDS011;13044;49.304;12.840;2022-08-01T03:47:07;4.25;;;3.70;;
25045;SDS011;13044;49.304;12.840;2022-08-01T03:49:37;6.43;;;3.80;;
25045;SDS011;13044;49.304;12.840;2022-08-01T03:52:09;5.13;;;4.30;;
25045;SDS011;13044;49.304;12.840;2022-08-01T03:54:41;5.32;;;3.65;;
25045;SDS011;13044;49.304;12.840;2022-08-01T03:57:13;4.57;;;3.92;;
25045;SDS011;13044;49.304;12.840;2022-08-01T04:00:02;6.03;;;3.97;;
25045;SDS011;13044;49.304;12.840;2022-08-01T04:02:35;5.88;;;4.22;;
25045;SDS011;13044;49.304;12.840;2022-08-01T04:05:03;7.15;;;3.83;;
25045;SDS011;13044;49.304;12.840;2022-08-01T04:07:32;4.40;;;4.00;;
25045;SDS011;13044;49.304;12.840;2022-08-01T04:10:05;6.68;;;4.40;;
25045;SDS011;13044;49.304;12.840;2022-08-01T04:12:33;6.70;;;4.65;;
25045;SDS011;13044;49.304;12.840;2022-08-01T04:15:00;7.10;;;4.28;;
25045;SDS011;13044;49.304;12.840;2022-08-01T04:17:27;7.05;;;4.55;;
25045;SDS011;13044;49.304;12.840;2022-08-01T04:19:54;4.93;;;3.90;;
25045;SDS011;13044;49.304;12.840;2022-08-01T04:22:21;8.77;;;4.35;;
25045;SDS011;13044;49.304;12.840;2022-08-01T04:24:49;6.45;;;4.28;;
25045;SDS011;13044;49.304;12.840;2022-08-01T04:27:23;6.07;;;4.00;;
25045;SDS011;13044;49.304;12.840;2022-08-01T04:30:17;6.30;;;4.28;;
25045;SDS011;13044;49.304;12.840;2022-08-01T04:32:47;5.25;;;4.25;;
25045;SDS011;13044;49.304;12.840;2022-08-01T04:35:16;8.15;;;4.18;;
25045;SDS011;13044;49.304;12.840;2022-08-01T04:38:06;3.95;;;3.55;;
25045;SDS011;13044;49.304;12.840;2022-08-01T04:40:35;7.40;;;3.80;;
25045;SDS011;13044;49.304;12.840;2022-08-01T04:43:03;10.48;;;4.18;;
25045;SDS011;13044;49.304;12.840;2022-08-01T04:45:32;5.68;;;4.15;;
25045;SDS011;13044;49.304;12.840;2022-08-01T04:48:00;4.90;;;4.22;;
25045;SDS011;13044;49.304;12.840;2022-08-01T04:50:28;5.95;;;3.83;;
25045;SDS011;13044;49.304;12.840;2022-08-01T04:52:55;5.55;;;3.72;;
25045;SDS011;13044;49.304;12.840;2022-08-01T04:55:22;5.22;;;3.92;;
25045;SDS011;13044;49.304;12.840;2022-08-01T04:57:49;5.13;;;4.07;;
25045;SDS011;13044;49.304;12.840;2022-08-01T05:00:16;5.38;;;3.92;;
25045;SDS011;13044;49.304;12.840;2022-08-01T05:02:43;6.03;;;4.28;;
25045;SDS011;13044;49.304;12.840;2022-08-01T05:05:10;6.82;;;4.53;;
25045;SDS011;13044;49.304;12.840;2022-08-01T05:07:38;6.97;;;4.43;;
25045;SDS011;13044;49.304;12.840;2022-08-01T05:10:11;7.95;;;4.47;;
25045;SDS011;13044;49.304;12.840;2022-08-01T05:12:38;12.02;;;4.13;;
25045;SDS011;13044;49.304;12.840;2022-08-01T05:15:05;6.25;;;3.90;;
25045;SDS011;13044;49.304;12.840;2022-08-01T05:17:40;4.55;;;4.00;;
25045;SDS011;13044;49.304;12.840;2022-08-01T05:20:08;4.28;;;3.85;;
25045;SDS011;13044;49.304;12.840;2022-08-01T05:22:37;5.93;;;4.10;;
25045;SDS011;13044;49.304;12.840;2022-08-01T05:25:05;8.10;;;3.40;;
25045;SDS011;13044;49.304;12.840;2022-08-01T05:27:33;4.22;;;3.67;;
25045;SDS011;13044;49.304;12.840;2022-08-01T05:30:06;4.80;;;3.55;;
25045;SDS011;13044;49.304;12.840;2022-08-01T05:32:34;5.22;;;3.30;;
25045;SDS011;13044;49.304;12.840;2022-08-01T05:35:02;10.45;;;3.90;;
25045;SDS011;13044;49.304;12.840;2022-08-01T05:37:30;5.22;;;3.75;;
25045;SDS011;13044;49.304;12.840;2022-08-01T05:39:56;8.23;;;3.50;;
25045;SDS011;13044;49.304;12.840;2022-08-01T05:42:23;8.40;;;4.47;;
25045;SDS011;13044;49.304;12.840;2022-08-01T05:44:50;4.43;;;3.80;;
25045;SDS011;13044;49.304;12.840;2022-08-01T05:47:17;5.05;;;3.78;;
25045;SDS011;13044;49.304;12.840;2022-08-01T05:49:45;8.32;;;5.15;;
25045;SDS011;13044;49.304;12.840;2022-08-01T05:52:12;6.63;;;5.03;;
25045;SDS011;13044;49.304;12.840;2022-08-01T05:54:40;5.35;;;4.43;;
25045;SDS011;13044;49.304;12.840;2022-08-01T05:57:07;5.75;;;4.45;;
25045;SDS011;13044;49.304;12.840;2022-08-01T05:59:36;9.70;;;4.40;;
25045;SDS011;13044;49.304;12.840;2022-08-01T06:02:03;10.40;;;4.57;;
25045;SDS011;13044;49.304;12.840;2022-08-01T06:04:30;5.82;;;4.75;;
25045;SDS011;13044;49.304;12.840;2022-08-01T06:06:57;8.00;;;4.53;;
25045;SDS011;13044;49.304;12.840;2022-08-01T06:09:24;7.28;;;4.93;;
25045;SDS011;13044;49.304;12.840;2022-08-01T06:11:51;5.40;;;4.30;;
25045;SDS011;13044;49.304;12.840;2022-08-01T06:14:18;7.75;;;4.88;;
25045;SDS011;13044;49.304;12.840;2022-08-01T06:16:45;7.13;;;4.50;;
25045;SDS011;13044;49.304;12.840;2022-08-01T06:19:12;9.35;;;4.38;;
25045;SDS011;13044;49.304;12.840;2022-08-01T06:21:39;6.50;;;4.60;;
25045;SDS011;13044;49.304;12.840;2022-08-01T06:24:06;8.57;;;5.13;;
25045;SDS011;13044;49.304;12.840;2022-08-01T06:26:33;6.68;;;5.28;;
25045;SDS011;13044;49.304;12.840;2022-08-01T06:29:00;9.55;;;4.32;;
25045;SDS011;13044;49.304;12.840;2022-08-01T06:31:27;6.78;;;4.70;;
25045;SDS011;13044;49.304;12.840;2022-08-01T06:33:58;5.82;;;4.50;;
25045;SDS011;13044;49.304;12.840;2022-08-01T06:36:25;8.20;;;4.60;;
25045;SDS011;13044;49.304;12.840;2022-08-01T06:38:53;6.43;;;4.65;;
25045;SDS011;13044;49.304;12.840;2022-08-01T06:41:19;6.13;;;4.18;;
25045;SDS011;13044;49.304;12.840;2022-08-01T06:43:46;5.25;;;4.30;;
25045;SDS011;13044;49.304;12.840;2022-08-01T06:46:13;8.82;;;4.28;;
25045;SDS011;13044;49.304;12.840;2022-08-01T06:48:40;4.72;;;4.00;;
25045;SDS011;13044;49.304;12.840;2022-08-01T06:51:08;6.13;;;4.47;;
25045;SDS011;13044;49.304;12.840;2022-08-01T06:53:36;5.88;;;4.13;;
25045;SDS011;13044;49.304;12.840;2022-08-01T06:56:04;6.18;;;4.70;;
25045;SDS011;13044;49.304;12.840;2022-08-01T06:58:32;6.10;;;4.45;;
25045;SDS011;13044;49.304;12.840;2022-08-01T07:01:00;5.70;;;4.30;;
25045;SDS011;13044;49.304;12.840;2022-08-01T07:03:32;8.10;;;4.38;;
25045;SDS011;13044;49.304;12.840;2022-08-01T07:06:19;5.25;;;4.18;;
25045;SDS011;13044;49.304;12.840;2022-08-01T07:08:47;7.03;;;4.20;;
25045;SDS011;13044;49.304;12.840;2022-08-01T07:11:14;6.15;;;3.80;;
25045;SDS011;13044;49.304;12.840;2022-08-01T07:13:41;5.13;;;3.65;;
25045;SDS011;13044;49.304;12.840;2022-08-01T07:16:11;5.15;;;3.88;;
25045;SDS011;13044;49.304;12.840;2022-08-01T07:18:39;4.93;;;3.42;;
25045;SDS011;13044;49.304;12.840;2022-08-01T07:21:06;8.55;;;3.75;;
25045;SDS011;13044;49.304;12.840;2022-08-01T07:23:54;3.97;;;3.58;;
25045;SDS011;13044;49.304;12.840;2022-08-01T07:26:21;6.70;;;3.70;;
25045;SDS011;13044;49.304;12.840;2022-08-01T07:28:48;4.88;;;4.10;;
25045;SDS011;13044;49.304;12.840;2022-08-01T07:31:15;6.38;;;3.80;;
25045;SDS011;13044;49.304;12.840;2022-08-01T07:33:42;6.75;;;3.40;;
25045;SDS011;13044;49.304;12.840;2022-08-01T07:36:14;5.40;;;3.83;;
25045;SDS011;13044;49.304;12.840;2022-08-01T07:38:43;6.45;;;4.18;;
25045;SDS011;13044;49.304;12.840;2022-08-01T07:41:10;4.45;;;3.50;;
25045;SDS011;13044;49.304;12.840;2022-08-01T07:43:37;5.15;;;3.80;;
25045;SDS011;13044;49.304;12.840;2022-08-01T07:46:04;4.85;;;3.30;;
25045;SDS011;13044;49.304;12.840;2022-08-01T07:48:32;4.30;;;3.90;;
25045;SDS011;13044;49.304;12.840;2022-08-01T07:50:59;7.70;;;4.00;;
25045;SDS011;13044;49.304;12.840;2022-08-01T07:53:26;4.30;;;3.50;;
25045;SDS011;13044;49.304;12.840;2022-08-01T07:55:53;5.05;;;3.50;;
25045;SDS011;13044;49.304;12.840;2022-08-01T07:58:20;5.68;;;4.40;;
25045;SDS011;13044;49.304;12.840;2022-08-01T08:00:47;4.82;;;4.10;;
25045;SDS011;13044;49.304;12.840;2022-08-01T08:03:14;6.38;;;3.95;;
25045;SDS011;13044;49.304;12.840;2022-08-01T08:05:41;9.57;;;4.07;;
25045;SDS011;13044;49.304;12.840;2022-08-01T08:08:25;4.95;;;4.00;;
25045;SDS011;13044;49.304;12.840;2022-08-01T08:10:52;6.00;;;3.70;;
25045;SDS011;13044;49.304;12.840;2022-08-01T08:13:19;9.15;;;3.60;;
25045;SDS011;13044;49.304;12.840;2022-08-01T08:15:47;5.65;;;3.45;;
25045;SDS011;13044;49.304;12.840;2022-08-01T08:18:14;3.85;;;3.10;;
25045;SDS011;13044;49.304;12.840;2022-08-01T08:20:42;5.38;;;2.80;;
25045;SDS011;13044;49.304;12.840;2022-08-01T08:23:09;4.95;;;3.00;;
25045;SDS011;13044;49.304;12.840;2022-08-01T08:26:08;4.60;;;2.92;;
25045;SDS011;13044;49.304;12.840;2022-08-01T08:28:36;3.63;;;2.88;;
25045;SDS011;13044;49.304;12.840;2022-08-01T08:31:05;4.55;;;2.85;;
25045;SDS011;13044;49.304;12.840;2022-08-01T08:33:32;5.28;;;2.95;;
25045;SDS011;13044;49.304;12.840;2022-08-01T08:35:59;5.20;;;2.75;;
25045;SDS011;13044;49.304;12.840;2022-08-01T08:38:26;4.85;;;2.80;;
25045;SDS011;13044;49.304;12.840;2022-08-01T08:40:55;5.82;;;3.08;;
25045;SDS011;13044;49.304;12.840;2022-08-01T08:43:24;5.65;;;2.78;;
25045;SDS011;13044;49.304;12.840;2022-08-01T08:45:52;10.18;;;2.97;;
25045;SDS011;13044;49.304;12.840;2022-08-01T08:48:25;6.32;;;2.67;;
25045;SDS011;13044;49.304;12.840;2022-08-01T08:50:53;5.32;;;2.38;;
25045;SDS011;13044;49.304;12.840;2022-08-01T08:53:22;5.43;;;2.80;;
25045;SDS011;13044;49.304;12.840;2022-08-01T08:55:59;2.67;;;2.47;;
25045;SDS011;13044;49.304;12.840;2022-08-01T08:58:27;2.72;;;2.30;;
25045;SDS011;13044;49.304;12.840;2022-08-01T09:00:57;2.92;;;2.25;;
25045;SDS011;13044;49.304;12.840;2022-08-01T09:03:24;4.57;;;2.25;;
25045;SDS011;13044;49.304;12.840;2022-08-01T09:05:51;2.80;;;2.60;;
25045;SDS011;13044;49.304;12.840;2022-08-01T09:08:19;3.72;;;2.38;;
25045;SDS011;13044;49.304;12.840;2022-08-01T09:10:46;4.22;;;2.00;;
25045;SDS011;13044;49.304;12.840;2022-08-01T09:13:13;6.90;;;2.35;;
25045;SDS011;13044;49.304;12.840;2022-08-01T09:15:43;2.72;;;2.17;;
25045;SDS011;13044;49.304;12.840;2022-08-01T09:21:07;4.75;;;2.20;;
25045;SDS011;13044;49.304;12.840;2022-08-01T09:26:31;4.53;;;2.28;;
25045;SDS011;13044;49.304;12.840;2022-08-01T09:29:04;3.78;;;2.28;;
25045;SDS011;13044;49.304;12.840;2022-08-01T09:31:39;3.30;;;2.13;;
25045;SDS011;13044;49.304;12.840;2022-08-01T09:34:13;7.30;;;2.58;;
25045;SDS011;13044;49.304;12.840;2022-08-01T09:36:49;6.60;;;2.47;;
25045;SDS011;13044;49.304;12.840;2022-08-01T09:39:21;4.00;;;2.05;;
25045;SDS011;13044;49.304;12.840;2022-08-01T09:41:54;3.05;;;2.10;;
25045;SDS011;13044;49.304;12.840;2022-08-01T09:44:39;2.33;;;2.10;;
25045;SDS011;13044;49.304;12.840;2022-08-01T09:47:11;3.00;;;1.75;;
25045;SDS011;13044;49.304;12.840;2022-08-01T09:49:41;1.98;;;1.67;;
25045;SDS011;13044;49.304;12.840;2022-08-01T09:52:19;6.43;;;2.13;;
25045;SDS011;13044;49.304;12.840;2022-08-01T09:54:55;2.20;;;2.00;;
25045;SDS011;13044;49.304;12.840;2022-08-01T09:57:28;2.00;;;1.80;;
25045;SDS011;13044;49.304;12.840;2022-08-01T09:59:56;8.65;;;2.72;;
25045;SDS011;13044;49.304;12.840;2022-08-01T10:05:04;4.40;;;1.90;;
25045;SDS011;13044;49.304;12.840;2022-08-01T10:07:36;3.20;;;1.80;;
25045;SDS011;13044;49.304;12.840;2022-08-01T10:10:24;3.83;;;1.77;;
25045;SDS011;13044;49.304;12.840;2022-08-01T10:12:58;3.55;;;1.63;;
25045;SDS011;13044;49.304;12.840;2022-08-01T10:15:27;4.80;;;1.45;;
25045;SDS011;13044;49.304;12.840;2022-08-01T10:18:03;1.65;;;1.55;;
25045;SDS011;13044;49.304;12.840;2022-08-01T10:20:51;1.50;;;1.38;;
25045;SDS011;13044;49.304;12.840;2022-08-01T10:23:23;3.95;;;1.58;;
25045;SDS011;13044;49.304;12.840;2022-08-01T10:26:06;4.15;;;1.50;;
25045;SDS011;13044;49.304;12.840;2022-08-01T10:28:35;4.50;;;1.73;;
25045;SDS011;13044;49.304;12.840;2022-08-01T10:31:04;1.73;;;1.33;;
25045;SDS011;13044;49.304;12.840;2022-08-01T10:33:39;1.80;;;1.08;;
25045;SDS011;13044;49.304;12.840;2022-08-01T10:36:21;1.77;;;1.38;;
25045;SDS011;13044;49.304;12.840;2022-08-01T10:38:51;2.17;;;1.33;;
25045;SDS011;13044;49.304;12.840;2022-08-01T10:41:20;3.25;;;1.40;;
25045;SDS011;13044;49.304;12.840;2022-08-01T10:43:48;2.20;;;1.02;;
25045;SDS011;13044;49.304;12.840;2022-08-01T10:46:15;1.13;;;1.10;;
25045;SDS011;13044;49.304;12.840;2022-08-01T10:51:39;3.95;;;1.20;;
25045;SDS011;13044;49.304;12.840;2022-08-01T10:54:19;1.40;;;1.30;;
25045;SDS011;13044;49.304;12.840;2022-08-01T10:56:52;1.60;;;1.33;;
25045;SDS011;13044;49.304;12.840;2022-08-01T10:59:29;1.80;;;1.10;;
25045;SDS011;13044;49.304;12.840;2022-08-01T11:02:34;1.23;;;1.08;;
25045;SDS011;13044;49.304;12.840;2022-08-01T11:05:12;1.38;;;1.25;;
25045;SDS011;13044;49.304;12.840;2022-08-01T11:07:51;2.45;;;1.30;;
25045;SDS011;13044;49.304;12.840;2022-08-01T11:15:21;1.38;;;1.27;;
25045;SDS011;13044;49.304;12.840;2022-08-01T11:17:55;2.67;;;1.50;;
25045;SDS011;13044;49.304;12.840;2022-08-01T11:20:26;5.28;;;1.40;;
25045;SDS011;13044;49.304;12.840;2022-08-01T11:28:23;1.50;;;1.40;;
25045;SDS011;13044;49.304;12.840;2022-08-01T11:41:09;3.20;;;1.20;;
25045;SDS011;13044;49.304;12.840;2022-08-01T11:47:16;1.50;;;1.33;;
25045;SDS011;13044;49.304;12.840;2022-08-01T11:49:47;2.35;;;1.30;;
25045;SDS011;13044;49.304;12.840;2022-08-01T11:52:25;3.08;;;1.83;;
25045;SDS011;13044;49.304;12.840;2022-08-01T11:57:30;1.20;;;1.10;;
25045;SDS011;13044;49.304;12.840;2022-08-01T12:00:11;5.28;;;1.42;;
25045;SDS011;13044;49.304;12.840;2022-08-01T12:02:45;2.22;;;1.50;;
25045;SDS011;13044;49.304;12.840;2022-08-01T12:05:13;1.10;;;1.10;;
25045;SDS011;13044;49.304;12.840;2022-08-01T12:07:50;2.55;;;1.30;;
25045;SDS011;13044;49.304;12.840;2022-08-01T12:10:19;1.88;;;1.33;;
25045;SDS011;13044;49.304;12.840;2022-08-01T12:12:50;3.05;;;1.30;;
25045;SDS011;13044;49.304;12.840;2022-08-01T12:15:28;1.63;;;1.30;;
25045;SDS011;13044;49.304;12.840;2022-08-01T12:18:04;2.47;;;1.70;;
25045;SDS011;13044;49.304;12.840;2022-08-01T12:20:33;1.55;;;1.40;;
25045;SDS011;13044;49.304;12.840;2022-08-01T12:23:06;1.88;;;1.30;;
25045;SDS011;13044;49.304;12.840;2022-08-01T12:25:39;1.20;;;1.10;;
25045;SDS011;13044;49.304;12.840;2022-08-01T12:28:07;1.42;;;1.30;;
25045;SDS011;13044;49.304;12.840;2022-08-01T12:30:35;1.50;;;1.30;;
25045;SDS011;13044;49.304;12.840;2022-08-01T12:33:04;3.03;;;1.40;;
25045;SDS011;13044;49.304;12.840;2022-08-01T12:35:34;1.70;;;1.38;;
25045;SDS011;13044;49.304;12.840;2022-08-01T12:38:09;3.75;;;1.40;;
25045;SDS011;13044;49.304;12.840;2022-08-01T12:40:43;1.50;;;1.40;;
25045;SDS011;13044;49.304;12.840;2022-08-01T12:43:18;1.58;;;1.40;;
25045;SDS011;13044;49.304;12.840;2022-08-01T12:45:54;2.53;;;1.15;;
25045;SDS011;13044;49.304;12.840;2022-08-01T12:48:25;4.60;;;1.38;;
25045;SDS011;13044;49.304;12.840;2022-08-01T12:50:52;1.65;;;1.55;;
25045;SDS011;13044;49.304;12.840;2022-08-01T12:53:22;1.65;;;1.15;;
25045;SDS011;13044;49.304;12.840;2022-08-01T12:55:50;2.00;;;1.10;;
25045;SDS011;13044;49.304;12.840;2022-08-01T12:58:29;1.40;;;1.30;;
25045;SDS011;13044;49.304;12.840;2022-08-01T13:01:02;1.70;;;1.33;;
25045;SDS011;13044;49.304;12.840;2022-08-01T13:03:32;1.83;;;1.58;;
25045;SDS011;13044;49.304;12.840;2022-08-01T13:06:00;5.28;;;1.63;;
25045;SDS011;13044;49.304;12.840;2022-08-01T13:08:30;2.50;;;1.75;;
25045;SDS011;13044;49.304;12.840;2022-08-01T13:11:01;1.63;;;1.40;;
25045;SDS011;13044;49.304;12.840;2022-08-01T13:13:37;3.05;;;1.55;;
25045;SDS011;13044;49.304;12.840;2022-08-01T13:16:17;1.02;;;1.02;;
25045;SDS011;13044;49.304;12.840;2022-08-01T13:19:06;3.33;;;1.10;;
25045;SDS011;13044;49.304;12.840;2022-08-01T13:21:33;1.77;;;1.38;;
25045;SDS011;13044;49.304;12.840;2022-08-01T13:24:23;1.58;;;1.30;;
25045;SDS011;13044;49.304;12.840;2022-08-01T13:26:56;3.40;;;1.10;;
25045;SDS011;13044;49.304;12.840;2022-08-01T13:29:33;2.63;;;1.30;;
25045;SDS011;13044;49.304;12.840;2022-08-01T13:32:18;1.10;;;1.00;;
25045;SDS011;13044;49.304;12.840;2022-08-01T13:35:02;3.20;;;1.15;;
25045;SDS011;13044;49.304;12.840;2022-08-01T13:37:30;2.00;;;1.35;;
25045;SDS011;13044;49.304;12.840;2022-08-01T13:39:57;1.02;;;1.00;;
25045;SDS011;13044;49.304;12.840;2022-08-01T13:42:25;1.55;;;1.10;;
25045;SDS011;13044;49.304;12.840;2022-08-01T13:44:52;0.93;;;0.93;;
25045;SDS011;13044;49.304;12.840;2022-08-01T13:47:18;2.83;;;1.10;;
25045;SDS011;13044;49.304;12.840;2022-08-01T13:49:57;2.05;;;1.02;;
25045;SDS011;13044;49.304;12.840;2022-08-01T13:52:28;3.15;;;1.25;;
25045;SDS011;13044;49.304;12.840;2022-08-01T13:54:55;3.58;;;1.25;;
25045;SDS011;13044;49.304;12.840;2022-08-01T13:57:23;1.20;;;1.10;;
25045;SDS011;13044;49.304;12.840;2022-08-01T13:59:49;2.65;;;1.10;;
25045;SDS011;13044;49.304;12.840;2022-08-01T14:02:18;1.90;;;1.40;;
25045;SDS011;13044;49.304;12.840;2022-08-01T14:04:46;2.53;;;1.13;;
25045;SDS011;13044;49.304;12.840;2022-08-01T14:07:13;2.25;;;1.10;;
25045;SDS011;13044;49.304;12.840;2022-08-01T14:09:41;2.50;;;1.10;;
25045;SDS011;13044;49.304;12.840;2022-08-01T14:12:10;5.00;;;1.13;;
25045;SDS011;13044;49.304;12.840;2022-08-01T14:14:37;1.92;;;1.35;;
25045;SDS011;13044;49.304;12.840;2022-08-01T14:17:04;2.22;;;1.25;;
25045;SDS011;13044;49.304;12.840;2022-08-01T14:19:31;1.77;;;1.30;;
25045;SDS011;13044;49.304;12.840;2022-08-01T14:22:04;3.15;;;1.27;;
25045;SDS011;13044;49.304;12.840;2022-08-01T14:24:32;1.58;;;1.08;;
25045;SDS011;13044;49.304;12.840;2022-08-01T14:26:59;4.25;;;1.20;;
25045;SDS011;13044;49.304;12.840;2022-08-01T14:29:26;2.53;;;1.50;;
25045;SDS011;13044;49.304;12.840;2022-08-01T14:32:13;1.30;;;1.20;;
25045;SDS011;13044;49.304;12.840;2022-08-01T14:34:39;1.45;;;1.20;;
25045;SDS011;13044;49.304;12.840;2022-08-01T14:37:06;1.85;;;1.65;;
25045;SDS011;13044;49.304;12.840;2022-08-01T14:39:35;1.80;;;1.38;;
25045;SDS011;13044;49.304;12.840;2022-08-01T14:42:02;1.80;;;1.20;;
25045;SDS011;13044;49.304;12.840;2022-08-01T14:44:32;2.58;;;1.30;;
25045;SDS011;13044;49.304;12.840;2022-08-01T14:47:01;1.63;;;1.40;;
25045;SDS011;13044;49.304;12.840;2022-08-01T14:49:41;1.30;;;1.20;;
25045;SDS011;13044;49.304;12.840;2022-08-01T14:52:10;1.67;;;1.40;;
25045;SDS011;13044;49.304;12.840;2022-08-01T14:54:37;3.28;;;1.33;;
25045;SDS011;13044;49.304;12.840;2022-08-01T14:57:04;1.52;;;1.20;;
25045;SDS011;13044;49.304;12.840;2022-08-01T14:59:31;2.17;;;1.17;;
25045;SDS011;13044;49.304;12.840;2022-08-01T15:01:58;4.90;;;1.33;;
25045;SDS011;13044;49.304;12.840;2022-08-01T15:04:25;3.30;;;1.30;;
25045;SDS011;13044;49.304;12.840;2022-08-01T15:06:52;1.00;;;1.00;;
25045;SDS011;13044;49.304;12.840;2022-08-01T15:09:19;1.50;;;1.40;;
25045;SDS011;13044;49.304;12.840;2022-08-01T15:11:46;2.05;;;1.45;;
25045;SDS011;13044;49.304;12.840;2022-08-01T15:14:13;1.50;;;1.40;;
25045;SDS011;13044;49.304;12.840;2022-08-01T15:16:59;1.65;;;1.50;;
25045;SDS011;13044;49.304;12.840;2022-08-01T15:19:25;1.58;;;1.48;;
25045;SDS011;13044;49.304;12.840;2022-08-01T15:21:52;1.35;;;1.20;;
25045;SDS011;13044;49.304;12.840;2022-08-01T15:24:19;2.35;;;1.33;;
25045;SDS011;13044;49.304;12.840;2022-08-01T15:26:46;1.50;;;1.40;;
25045;SDS011;13044;49.304;12.840;2022-08-01T15:29:14;1.42;;;1.30;;
25045;SDS011;13044;49.304;12.840;2022-08-01T15:31:41;1.35;;;1.25;;
25045;SDS011;13044;49.304;12.840;2022-08-01T15:34:08;1.50;;;1.27;;
25045;SDS011;13044;49.304;12.840;2022-08-01T15:36:35;1.70;;;1.60;;
25045;SDS011;13044;49.304;12.840;2022-08-01T15:39:07;3.42;;;1.40;;